Time;durP1;ratioP1;P1;durP2;ratioP2;P2;SDS_P1;SDS_P2;PMS_P1;PMS_P2;Temp;Humidity;BMP_temperature;BMP_pressure;BME280_temperature;BME280_humidity;BME280_pressure;Samples;Min_cycle;Max_cycle;Signal;HPM_P1;HPM_P2
2023/01/11 00:00:42;;;;;;;10.43;5.00;;;;;;;8.41;100.00;100696.38;4955349;29;20523;-82
2023/01/11 00:03:08;;;;;;;10.20;5.53;;;;;;;8.41;100.00;100683.50;4955453;29;20019;-81
2023/01/11 00:05:38;;;;;;;8.10;4.70;;;;;;;8.33;100.00;100677.00;4955241;29;20515;-81
2023/01/11 00:08:04;;;;;;;12.60;5.32;;;;;;;8.51;100.00;100700.91;4954765;28;20035;-82
2023/01/11 00:10:29;;;;;;;9.82;4.57;;;;;;;8.53;100.00;100680.25;4955386;29;20027;-81
2023/01/11 00:12:54;;;;;;;10.63;4.82;;;;;;;8.55;100.00;100688.69;4938118;29;20120;-81
2023/01/11 00:15:20;;;;;;;9.50;4.75;;;;;;;8.38;100.00;100656.22;4955223;29;20027;-81
2023/01/11 00:17:45;;;;;;;8.13;3.58;;;;;;;8.47;100.00;100665.16;4955271;29;20035;-81
2023/01/11 00:20:10;;;;;;;8.95;4.20;;;;;;;8.62;100.00;100677.97;4954841;29;20093;-82
2023/01/11 00:22:36;;;;;;;8.38;4.25;;;;;;;8.46;100.00;100648.91;4955117;29;20055;-81
2023/01/11 00:25:02;;;;;;;9.15;4.38;;;;;;;8.63;100.00;100671.91;4955218;29;20086;-81
2023/01/11 00:27:28;;;;;;;8.23;3.50;;;;;;;8.63;100.00;100673.66;4954868;29;20109;-82
2023/01/11 00:29:53;;;;;;;8.75;3.83;;;;;;;8.63;100.00;100668.50;4954479;29;20070;-81
2023/01/11 00:32:18;;;;;;;8.60;3.72;;;;;;;8.64;100.00;100667.56;4954298;29;20108;-82
2023/01/11 00:34:43;;;;;;;7.28;3.70;;;;;;;8.65;100.00;100670.97;4954841;29;20130;-81
2023/01/11 00:37:09;;;;;;;6.07;3.70;;;;;;;8.64;100.00;100667.56;4954883;29;20110;-81
2023/01/11 00:39:35;;;;;;;8.25;3.40;;;;;;;8.65;100.00;100670.97;4954719;29;20031;-81
2023/01/11 00:50:34;;;;;;;7.30;3.47;;;;;;;8.38;100.00;100642.53;4914543;29;20051;-81
2023/01/11 00:53:00;;;;;;;6.72;3.28;;;;;;;8.53;100.00;100655.31;4914400;29;20035;-82
2023/01/11 00:55:25;;;;;;;8.38;3.53;;;;;;;8.51;100.00;100658.91;4914370;29;20048;-81
2023/01/11 00:57:51;;;;;;;7.10;3.35;;;;;;;8.40;100.00;100638.13;4914469;29;20035;-81
2023/01/11 01:00:18;;;;;;;9.00;3.97;;;;;;;8.37;100.00;100631.41;4914453;29;20493;-80
2023/01/11 01:02:44;;;;;;;8.07;3.58;;;;;;;8.46;100.00;100650.63;4914088;29;20051;-81
2023/01/11 01:05:09;;;;;;;8.60;3.60;;;;;;;8.50;100.00;100659.84;4914439;29;20028;-81
2023/01/11 01:07:35;;;;;;;6.70;3.75;;;;;;;8.51;100.00;100651.19;4914213;29;20123;-84
2023/01/11 01:10:00;;;;;;;11.45;4.47;;;;;;;8.29;100.00;100615.53;4914696;29;20087;-85
2023/01/11 01:15:10;;;;;;;7.35;4.70;;;;;;;8.37;100.00;100628.00;4914307;29;20044;-85
2023/01/11 01:17:36;;;;;;;9.32;4.50;;;;;;;8.54;100.00;100656.97;4914087;29;20028;-85
2023/01/11 01:20:02;;;;;;;9.65;4.60;;;;;;;8.53;100.00;100657.06;4915058;29;20044;-85
2023/01/11 01:22:27;;;;;;;7.50;4.45;;;;;;;8.39;100.00;100633.88;4957895;29;20128;-83
2023/01/11 01:24:52;;;;;;;9.85;4.90;;;;;;;8.34;100.00;100622.09;4958531;29;20027;-85
2023/01/11 01:27:18;;;;;;;9.65;4.40;;;;;;;8.58;100.00;100670.53;4958339;29;20030;-86
2023/01/11 01:29:44;;;;;;;9.73;4.50;;;;;;;8.63;100.00;100665.94;4941080;29;20097;-85
2023/01/11 01:32:09;;;;;;;8.88;5.50;;;;;;;8.50;100.00;100637.50;4958024;29;20047;-84
2023/01/11 01:34:38;;;;;;;9.38;5.07;;;;;;;8.55;100.00;100643.22;4958273;29;20054;-84
2023/01/11 01:37:04;;;;;;;8.18;4.78;;;;;;;8.59;100.00;100638.72;4958036;29;20506;-82
2023/01/11 01:39:29;;;;;;;9.00;4.90;;;;;;;8.69;100.00;100663.00;4958025;29;20510;-83
2023/01/11 01:41:55;;;;;;;7.70;4.97;;;;;;;8.72;100.00;100660.25;4958006;29;20031;-84
2023/01/11 01:44:51;;;;;;;8.43;4.78;;;;;;;8.73;100.00;100658.50;4957735;29;20027;-83
2023/01/11 01:47:20;;;;;;;9.48;4.70;;;;;;;8.72;100.00;100662.81;4957609;29;20031;-83
2023/01/11 01:49:46;;;;;;;7.72;4.70;;;;;;;8.74;100.00;100655.84;4957797;29;20062;-81
2023/01/11 01:52:11;;;;;;;8.40;4.43;;;;;;;8.73;100.00;100646.47;4957804;29;20031;-81
2023/01/11 01:54:43;;;;;;;8.07;4.97;;;;;;;8.81;100.00;100652.00;4957733;29;20086;-80
2023/01/11 01:57:13;;;;;;;7.63;4.75;;;;;;;8.73;100.00;100631.00;4957671;29;20039;-81
2023/01/11 01:59:40;;;;;;;9.00;4.10;;;;;;;8.62;100.00;100611.03;4957934;29;20023;-79
2023/01/11 02:02:05;;;;;;;9.23;4.35;;;;;;;8.91;100.00;100647.13;4957580;29;20031;-79
2023/01/11 02:04:40;;;;;;;6.32;4.35;;;;;;;8.93;100.00;100649.63;4957831;29;20027;-78
2023/01/11 02:07:16;;;;;;;8.27;4.70;;;;;;;8.91;100.00;100647.97;4957545;29;20386;-77
2023/01/11 02:10:06;;;;;;;6.35;4.00;;;;;;;8.98;100.00;100647.59;4957426;29;20073;-77
2023/01/11 02:12:39;;;;;;;8.25;3.78;;;;;;;8.96;100.00;100639.97;4957430;29;20027;-77
2023/01/11 02:15:06;;;;;;;7.57;4.47;;;;;;;8.91;100.00;100629.09;4957756;29;20035;-77
2023/01/11 02:17:31;;;;;;;8.23;4.00;;;;;;;8.91;100.00;100622.22;4957431;29;20023;-77
2023/01/11 02:20:29;;;;;;;7.85;4.10;;;;;;;9.03;100.00;100651.56;4957387;29;20031;-77
2023/01/11 02:23:09;;;;;;;10.57;3.90;;;;;;;9.06;100.00;100656.53;4864059;29;20048;-77
2023/01/11 02:26:01;;;;;;;6.57;4.00;;;;;;;9.08;100.00;100649.56;4879341;29;20493;-77
2023/01/11 02:28:37;;;;;;;8.93;3.80;;;;;;;8.90;100.00;100622.31;4879865;29;20409;-80
2023/01/11 02:31:30;;;;;;;7.55;3.92;;;;;;;9.07;100.00;100639.34;4879433;29;20033;-78
2023/01/11 02:34:25;;;;;;;7.50;3.55;;;;;;;9.15;100.00;100648.28;4878945;29;20131;-77
2023/01/11 02:37:20;;;;;;;7.75;3.72;;;;;;;9.17;100.00;100640.44;4879253;29;20037;-78
2023/01/11 02:39:54;;;;;;;7.13;3.28;;;;;;;9.18;100.00;100647.25;4879193;29;20056;-78
2023/01/11 02:45:46;;;;;;;7.07;3.30;;;;;;;9.23;100.00;100636.66;4879228;29;20101;-79
2023/01/11 02:48:30;;;;;;;6.30;3.65;;;;;;;9.13;100.00;100611.44;4878890;29;20040;-78
2023/01/11 02:51:23;;;;;;;7.78;4.00;;;;;;;9.28;100.00;100635.47;4879027;29;20532;-78
2023/01/11 02:53:54;;;;;;;5.03;3.15;;;;;;;9.16;100.00;100605.31;4878919;29;20054;-78
2023/01/11 02:56:24;;;;;;;6.53;3.70;;;;;;;9.31;100.00;100630.13;4878778;29;20033;-78
2023/01/11 02:58:52;;;;;;;6.40;3.10;;;;;;;9.25;100.00;100627.94;4927701;29;20035;-79
2023/01/11 03:01:21;;;;;;;7.07;3.50;;;;;;;9.23;100.00;100624.59;4956762;29;20118;-78
2023/01/11 03:03:50;;;;;;;6.88;3.75;;;;;;;9.36;100.00;100632.44;4939178;29;20062;-78
2023/01/11 03:06:19;;;;;;;6.95;3.75;;;;;;;9.37;100.00;100634.09;4956550;29;20079;-78
2023/01/11 03:09:03;;;;;;;7.63;3.70;;;;;;;9.39;100.00;100627.91;4956475;29;20086;-79
2023/01/11 03:14:47;;;;;;;7.43;4.60;;;;;;;9.32;100.00;100610.34;4956406;29;20051;-81
2023/01/11 03:17:27;;;;;;;8.48;4.32;;;;;;;9.44;100.00;100627.66;4956250;29;20054;-80
2023/01/11 03:19:59;;;;;;;6.78;4.32;;;;;;;9.38;100.00;100604.81;4955993;29;20031;-80
2023/01/11 03:22:37;;;;;;;7.78;4.80;;;;;;;9.48;100.00;100619.63;4956328;29;20055;-78
2023/01/11 03:25:17;;;;;;;7.15;4.28;;;;;;;9.47;100.00;100632.59;4956621;29;20378;-78
2023/01/11 03:27:52;;;;;;;6.45;4.00;;;;;;;9.49;100.00;100623.03;4938982;29;20046;-80
2023/01/11 03:30:29;;;;;;;8.15;4.20;;;;;;;9.48;100.00;100621.38;4956010;29;20165;-78
2023/01/11 03:33:13;;;;;;;6.63;3.85;;;;;;;9.41;100.00;100613.16;4956084;29;20105;-80
2023/01/11 03:35:47;;;;;;;6.28;3.53;;;;;;;9.33;100.00;100592.19;4955775;29;20030;-80
2023/01/11 03:38:20;;;;;;;5.05;3.33;;;;;;;9.26;100.00;100584.97;4956136;29;20031;-79
2023/01/11 03:40:50;;;;;;;5.22;3.15;;;;;;;9.55;100.00;100629.56;4955917;29;20613;-78
2023/01/11 03:43:18;;;;;;;7.05;3.50;;;;;;;9.43;100.00;100607.91;4955179;28;20454;-79
2023/01/11 03:46:00;;;;;;;6.63;3.58;;;;;;;9.45;100.00;100617.25;4955725;29;20023;-81
2023/01/11 03:48:33;;;;;;;6.38;3.70;;;;;;;9.56;100.00;100624.31;4955688;29;20068;-79
2023/01/11 03:51:01;;;;;;;6.05;3.40;;;;;;;9.60;100.00;100630.09;4955438;29;20027;-80
2023/01/11 03:53:30;;;;;;;5.70;3.60;;;;;;;9.60;100.00;100630.91;4955462;29;20586;-78
2023/01/11 03:55:59;;;;;;;6.47;3.33;;;;;;;9.60;100.00;100620.59;4955793;29;20083;-79
2023/01/11 03:58:26;;;;;;;5.57;3.00;;;;;;;9.59;100.00;100629.25;4955592;29;20025;-78
2023/01/11 04:00:54;;;;;;;5.00;3.40;;;;;;;9.43;100.00;100606.16;4955775;29;20023;-78
2023/01/11 04:03:20;;;;;;;5.50;3.08;;;;;;;9.61;100.00;100637.72;4955444;29;20027;-77
2023/01/11 04:05:51;;;;;;;6.53;2.92;;;;;;;9.61;100.00;100635.13;4955124;29;20035;-78
2023/01/11 04:08:16;;;;;;;5.73;2.50;;;;;;;9.49;100.00;100616.13;4955420;29;20031;-78
2023/01/11 04:10:41;;;;;;;3.42;2.25;;;;;;;9.61;100.00;100634.31;4955296;29;20156;-77
2023/01/11 04:13:07;;;;;;;3.45;2.03;;;;;;;9.46;100.00;100612.91;4955365;29;20042;-77
2023/01/11 04:15:33;;;;;;;5.60;2.50;;;;;;;9.43;100.00;100611.31;4955415;29;20043;-78
2023/01/11 04:18:03;;;;;;;3.88;2.05;;;;;;;9.59;100.00;100628.44;4955137;29;20121;-77
2023/01/11 04:20:30;;;;;;;4.78;2.50;;;;;;;9.65;100.00;100656.44;4955134;29;20027;-79
2023/01/11 04:22:55;;;;;;;5.15;2.50;;;;;;;9.66;100.00;100658.06;4955016;29;20038;-77
2023/01/11 04:25:21;;;;;;;4.82;2.90;;;;;;;9.53;100.00;100624.47;4955318;29;20030;-77
2023/01/11 04:27:46;;;;;;;4.45;2.63;;;;;;;9.58;100.00;100627.59;4955122;29;20429;-77
2023/01/11 04:30:12;;;;;;;4.82;2.90;;;;;;;9.55;100.00;100619.25;4955004;29;20464;-77
2023/01/11 04:32:37;;;;;;;6.97;3.40;;;;;;;9.70;100.00;100646.63;4954941;29;20055;-77
2023/01/11 04:35:02;;;;;;;5.60;3.60;;;;;;;9.70;100.00;100639.72;4954981;29;20132;-77
2023/01/11 04:37:28;;;;;;;8.02;4.55;;;;;;;9.74;100.00;100641.22;4954935;29;20166;-77
2023/01/11 04:39:53;;;;;;;7.97;4.90;;;;;;;9.74;100.00;100654.09;4954855;29;20030;-77
2023/01/11 04:42:18;;;;;;;8.68;5.28;;;;;;;9.77;100.00;100659.06;4955068;29;20027;-78
2023/01/11 04:44:46;;;;;;;8.23;5.68;;;;;;;9.69;100.00;100639.81;4937962;29;20562;-77
2023/01/11 04:47:12;;;;;;;9.63;5.88;;;;;;;9.67;100.00;100623.63;4954777;29;20035;-79
2023/01/11 04:49:37;;;;;;;9.55;6.15;;;;;;;9.74;100.00;100653.28;4954652;29;20027;-77
2023/01/11 04:52:03;;;;;;;10.07;6.38;;;;;;;9.79;100.00;100661.53;4954814;29;20027;-78
2023/01/11 04:54:28;;;;;;;9.40;6.47;;;;;;;9.68;100.00;100640.75;4953681;28;20448;-81
2023/01/11 04:56:53;;;;;;;9.65;6.32;;;;;;;9.78;100.00;100652.16;4937543;29;20471;-80
2023/01/11 04:59:19;;;;;;;11.68;7.30;;;;;;;9.85;100.00;100671.50;4954676;29;20119;-80
2023/01/11 05:01:44;;;;;;;9.13;6.43;;;;;;;9.85;100.00;100668.91;4954750;29;20035;-79
2023/01/11 05:04:09;;;;;;;8.90;6.10;;;;;;;9.75;100.00;100660.91;4954650;29;20027;-80
2023/01/11 05:06:35;;;;;;;10.65;6.85;;;;;;;9.73;100.00;100652.44;4954532;29;20031;-81
2023/01/11 05:09:00;;;;;;;9.43;6.40;;;;;;;9.84;100.00;100676.75;4954547;29;20483;-81
2023/01/11 05:11:25;;;;;;;10.43;7.13;;;;;;;9.85;100.00;100665.50;4954469;29;20540;-83
2023/01/11 05:13:51;;;;;;;9.30;6.43;;;;;;;9.81;100.00;100667.44;4954470;29;20038;-82
2023/01/11 05:16:23;;;;;;;10.30;7.22;;;;;;;9.87;100.00;100681.69;4954408;29;20039;-80
2023/01/11 05:19:00;;;;;;;11.82;7.47;;;;;;;9.70;100.00;100652.63;4954469;29;20046;-78
2023/01/11 05:21:28;;;;;;;12.32;7.50;;;;;;;9.87;100.00;100674.78;4954196;29;20081;-80
2023/01/11 05:23:53;;;;;;;10.48;6.70;;;;;;;9.87;100.00;100695.44;4954280;29;20078;-80
2023/01/11 05:26:22;;;;;;;11.43;6.90;;;;;;;9.75;100.00;100681.53;4954425;29;20039;-80
2023/01/11 05:28:48;;;;;;;10.88;7.05;;;;;;;9.81;100.00;100680.31;4954170;29;20023;-79
2023/01/11 05:31:14;;;;;;;11.23;7.40;;;;;;;9.84;100.00;100692.22;4954449;29;20391;-81
2023/01/11 05:33:40;;;;;;;10.30;7.28;;;;;;;9.82;100.00;100700.03;4936950;29;20075;-80
2023/01/11 05:36:09;;;;;;;12.10;6.68;;;;;;;9.53;100.00;100665.72;4954145;29;20067;-83
2023/01/11 05:38:34;;;;;;;13.52;7.82;;;;;;;9.76;100.00;100703.00;4937422;29;20106;-81
2023/01/11 05:41:02;;;;;;;14.90;7.90;;;;;;;9.75;100.00;100701.34;4954353;29;20122;-84
2023/01/11 05:43:29;;;;;;;13.13;8.00;;;;;;;9.72;100.00;100699.75;4954227;29;20027;-84
2023/01/11 05:45:56;;;;;;;11.60;7.82;;;;;;;9.53;100.00;100681.19;4954074;29;20050;-82
2023/01/11 05:48:21;;;;;;;12.35;7.22;;;;;;;9.72;100.00;100707.50;4937110;29;20023;-84
2023/01/11 05:50:54;;;;;;;12.73;7.38;;;;;;;9.70;100.00;100708.53;4954046;29;20077;-84
2023/01/11 05:53:22;;;;;;;16.08;8.10;;;;;;;9.54;100.00;100685.44;4936418;29;20395;-85
2023/01/11 05:55:54;;;;;;;14.60;7.55;;;;;;;9.57;100.00;100707.63;4954129;29;20023;-85
2023/01/11 05:58:20;;;;;;;14.32;7.50;;;;;;;9.54;100.00;100700.91;4954187;29;20035;-83
2023/01/11 06:00:48;;;;;;;16.38;7.20;;;;;;;9.58;100.00;100706.69;4954275;29;20023;-84
2023/01/11 06:03:13;;;;;;;14.52;6.32;;;;;;;9.51;100.00;100721.69;4954022;29;20031;-82
2023/01/11 06:05:39;;;;;;;14.82;4.60;;;;;;;9.40;100.00;100727.50;4954291;28;20040;-82
2023/01/11 06:08:04;;;;;;;17.63;3.90;;;;;;;9.30;100.00;100721.22;4957948;29;20027;-84
2023/01/11 06:10:29;;;;;;;16.48;3.58;;;;;;;9.22;100.00;100738.06;4957997;29;20038;-80
2023/01/11 06:13:25;;;;;;;15.27;4.07;;;;;;;9.14;100.00;100738.50;4957966;29;20046;-80
2023/01/11 06:15:41;;;;;;;13.68;3.30;;;;;;;8.94;100.00;100711.31;4957197;29;20023;-80
2023/01/11 06:18:07;;;;;;;24.95;4.22;;;;;;;8.68;100.00;100681.94;4957479;29;20034;-80
2023/01/11 06:20:32;;;;;;;17.33;4.53;;;;;;;8.97;100.00;100741.25;4940019;29;20034;-80
2023/01/11 06:22:57;;;;;;;16.98;3.58;;;;;;;8.93;100.00;100742.31;4957253;29;20031;-80
2023/01/11 06:25:23;;;;;;;14.05;3.97;;;;;;;8.89;100.00;100757.97;4957499;29;20019;-80
2023/01/11 06:27:48;;;;;;;18.95;3.78;;;;;;;8.79;100.00;100743.94;4957354;29;20118;-80
2023/01/11 06:30:13;;;;;;;20.70;4.10;;;;;;;8.74;100.00;100751.09;4957307;29;20094;-81
2023/01/11 06:32:39;;;;;;;17.75;3.65;;;;;;;8.77;100.00;100770.72;4957190;29;20509;-81
2023/01/11 06:35:05;;;;;;;13.80;3.13;;;;;;;8.68;100.00;100761.75;4957297;29;20382;-80
2023/01/11 06:37:31;;;;;;;20.40;4.20;;;;;;;8.74;100.00;100760.56;4939606;29;20035;-80
2023/01/11 06:39:56;;;;;;;18.42;3.90;;;;;;;8.61;100.00;100763.00;4956540;29;20143;-79
2023/01/11 06:42:21;;;;;;;22.30;3.92;;;;;;;8.59;100.00;100775.13;4957119;29;20035;-82
2023/01/11 06:44:47;;;;;;;19.95;3.60;;;;;;;8.63;100.00;100786.91;4956988;29;20467;-80
2023/01/11 06:47:12;;;;;;;20.38;4.53;;;;;;;8.60;100.00;100782.75;4957006;29;20031;-82
2023/01/11 06:49:37;;;;;;;23.95;3.55;;;;;;;8.57;100.00;100795.81;4956905;29;20027;-81
2023/01/11 06:52:03;;;;;;;22.45;4.07;;;;;;;8.54;100.00;100788.25;4956541;29;20074;-81
2023/01/11 06:54:28;;;;;;;24.27;4.22;;;;;;;8.42;100.00;100768.34;4957038;29;20054;-79
2023/01/11 06:56:53;;;;;;;24.17;3.90;;;;;;;8.31;100.00;100799.75;4956682;29;20460;-81
2023/01/11 06:59:19;;;;;;;19.15;2.80;;;;;;;8.48;100.00;100834.09;4956675;29;20032;-78
2023/01/11 07:01:44;;;;;;;20.92;3.83;;;;;;;8.39;100.00;100829.44;4956684;29;20106;-79
2023/01/11 07:04:09;;;;;;;21.80;4.28;;;;;;;8.40;100.00;100813.09;4956795;29;20051;-78
2023/01/11 07:06:35;;;;;;;20.48;3.60;;;;;;;8.44;100.00;100817.13;4956368;29;20038;-78
2023/01/11 07:09:00;;;;;;;18.83;3.35;;;;;;;8.42;100.00;100818.97;4956402;29;20027;-79
2023/01/11 07:11:25;;;;;;;19.83;4.38;;;;;;;8.41;100.00;100820.72;4956435;29;20046;-80
2023/01/11 07:13:51;;;;;;;22.83;4.30;;;;;;;8.40;100.00;100813.09;4956461;29;20065;-78
2023/01/11 07:16:16;;;;;;;20.35;3.92;;;;;;;8.37;100.00;100831.28;4956292;29;20073;-79
2023/01/11 07:18:42;;;;;;;21.08;3.90;;;;;;;8.40;100.00;100833.66;4955461;28;20034;-78
2023/01/11 07:21:07;;;;;;;16.70;4.53;;;;;;;8.43;100.00;100846.34;4956507;29;20027;-79
2023/01/11 07:23:33;;;;;;;24.50;3.88;;;;;;;8.43;100.00;100843.78;4956065;29;20027;-80
2023/01/11 07:25:58;;;;;;;18.15;3.53;;;;;;;8.46;100.00;100846.22;4956297;29;20369;-78
2023/01/11 07:28:23;;;;;;;20.13;3.30;;;;;;;8.47;100.00;100847.88;4956354;29;20031;-78
2023/01/11 07:30:49;;;;;;;22.35;3.53;;;;;;;8.44;100.00;100859.13;4955900;29;20031;-78
2023/01/11 07:33:15;;;;;;;17.08;4.10;;;;;;;8.43;100.00;100859.22;4955184;29;20181;-76
2023/01/11 07:35:43;;;;;;;19.83;3.83;;;;;;;8.33;100.00;100857.13;4956854;29;20080;-75
2023/01/11 07:38:13;;;;;;;22.23;4.75;;;;;;;8.41;100.00;100872.19;4955437;29;20056;-77
2023/01/11 07:40:39;;;;;;;19.23;3.60;;;;;;;8.40;100.00;100872.25;4939219;29;20039;-79
2023/01/11 07:43:10;;;;;;;19.13;3.42;;;;;;;8.21;100.00;100851.78;4938727;29;20098;-81
2023/01/11 07:45:37;;;;;;;22.40;5.22;;;;;;;8.19;100.00;100844.16;4955897;29;20139;-79
2023/01/11 07:48:05;;;;;;;22.60;3.92;;;;;;;8.34;100.00;100870.81;4955903;29;20027;-78
2023/01/11 07:50:31;;;;;;;20.85;4.65;;;;;;;8.31;100.00;100879.53;4955798;29;20035;-80
2023/01/11 07:52:56;;;;;;;20.95;3.85;;;;;;;8.27;100.00;100890.06;4955416;28;20031;-77
2023/01/11 07:55:21;;;;;;;17.63;3.58;;;;;;;8.24;100.00;100896.19;4955708;29;20031;-76
2023/01/11 07:57:47;;;;;;;25.30;4.55;;;;;;;8.08;100.00;100872.19;4955690;29;20069;-75
2023/01/11 08:00:13;;;;;;;17.92;3.53;;;;;;;8.20;100.00;100901.59;4955704;28;20130;-77
2023/01/11 08:02:38;;;;;;;19.35;3.13;;;;;;;8.14;100.00;100902.72;4955668;29;20031;-74
2023/01/11 08:05:04;;;;;;;27.98;4.22;;;;;;;8.15;100.00;100918.97;4955666;29;20082;-73
2023/01/11 08:07:29;;;;;;;20.65;3.88;;;;;;;7.81;100.00;100855.59;4955355;29;20054;-74
2023/01/11 08:09:55;;;;;;;22.08;3.53;;;;;;;7.82;100.00;100864.97;4955349;28;20062;-75
2023/01/11 08:15:05;;;;;;;15.35;3.55;;;;;;;8.07;100.00;100932.25;4955344;29;20097;-76
2023/01/11 08:17:30;;;;;;;19.77;4.43;;;;;;;8.03;100.00;100931.56;4955184;29;20027;-75
2023/01/11 08:19:55;;;;;;;15.38;3.35;;;;;;;8.03;100.00;100943.59;4955327;29;20031;-75
2023/01/11 08:22:21;;;;;;;17.73;3.78;;;;;;;8.01;100.00;100947.97;4955091;28;20028;-77
2023/01/11 08:24:46;;;;;;;24.55;3.80;;;;;;;7.97;100.00;100952.47;4954989;28;20023;-74
2023/01/11 08:27:12;;;;;;;19.67;3.88;;;;;;;7.95;100.00;100961.97;4938099;29;20490;-74
2023/01/11 08:29:38;;;;;;;16.88;3.50;;;;;;;7.94;100.00;100974.91;4954913;28;20035;-76
2023/01/11 08:32:04;;;;;;;17.25;3.58;;;;;;;7.91;100.00;100980.22;4954977;28;20043;-76
2023/01/11 08:34:30;;;;;;;16.58;4.00;;;;;;;7.68;100.00;100953.91;4955244;29;20482;-75
2023/01/11 08:36:56;;;;;;;19.15;3.42;;;;;;;7.80;100.00;100990.19;4954858;29;20062;-75
2023/01/11 08:39:22;;;;;;;18.77;3.65;;;;;;;7.62;100.00;100973.91;4954826;29;20078;-76
2023/01/11 08:41:47;;;;;;;18.70;3.40;;;;;;;7.81;100.00;101015.81;4937916;29;20091;-80
2023/01/11 08:44:15;;;;;;;19.55;3.53;;;;;;;7.70;100.00;100998.34;4954848;29;20027;-75
2023/01/11 08:46:40;;;;;;;20.27;3.85;;;;;;;7.53;100.00;100982.06;4937204;29;20032;-78
2023/01/11 08:49:10;;;;;;;22.15;4.18;;;;;;;7.56;100.00;100995.59;4954843;28;20031;-81
2023/01/11 08:51:39;;;;;;;27.13;4.10;;;;;;;7.73;100.00;101013.63;4954909;29;20031;-75
2023/01/11 08:54:08;;;;;;;24.42;3.78;;;;;;;7.73;100.00;101016.19;4954545;28;20027;-76
2023/01/11 08:56:34;;;;;;;21.13;4.50;;;;;;;7.74;100.00;101020.41;4954666;29;20444;-75
2023/01/11 08:59:00;;;;;;;22.35;3.95;;;;;;;7.72;100.00;101022.22;4954688;29;20361;-79
2023/01/11 09:01:25;;;;;;;18.88;3.63;;;;;;;7.72;100.00;101026.53;4954636;29;20055;-78
2023/01/11 09:03:51;;;;;;;17.73;4.15;;;;;;;7.54;100.00;100994.84;4954746;29;20029;-78
2023/01/11 09:06:17;;;;;;;20.58;3.67;;;;;;;7.64;100.00;101026.91;4954707;29;20034;-78
2023/01/11 09:08:43;;;;;;;21.42;4.43;;;;;;;7.48;100.00;101001.13;4953864;28;20093;-78
2023/01/11 09:11:52;;;;;;;17.60;4.70;;;;;;;7.66;100.00;101013.97;4955600;29;20123;-77
2023/01/11 09:13:53;;;;;;;22.58;3.97;;;;;;;7.46;100.00;100991.78;4954100;29;20039;-80
2023/01/11 09:16:19;;;;;;;18.98;4.82;;;;;;;7.61;100.00;101029.63;4954652;29;20090;-80
2023/01/11 09:18:44;;;;;;;18.67;3.63;;;;;;;7.52;100.00;101019.78;4954515;29;20539;-79
2023/01/11 09:21:09;;;;;;;15.60;3.20;;;;;;;7.20;100.00;100975.06;4954465;28;20035;-80
2023/01/11 09:23:35;;;;;;;18.88;3.78;;;;;;;7.50;100.00;101033.63;4954420;28;20019;-79
2023/01/11 09:26:01;;;;;;;15.38;3.63;;;;;;;7.41;100.00;101024.59;4954119;29;20030;-79
2023/01/11 09:28:26;;;;;;;17.95;3.83;;;;;;;7.25;100.00;101003.06;4954342;29;20391;-81
2023/01/11 09:30:52;;;;;;;22.00;4.30;;;;;;;7.44;100.00;101052.69;4954346;29;20028;-80
2023/01/11 09:33:18;;;;;;;22.13;4.35;;;;;;;7.27;100.00;101035.50;4954277;29;20499;-79
2023/01/11 09:35:45;;;;;;;21.50;3.75;;;;;;;7.38;100.00;101066.69;4954941;28;20103;-78
2023/01/11 09:38:10;;;;;;;19.70;3.92;;;;;;;7.36;100.00;101063.31;4954354;28;20114;-79
2023/01/11 09:41:16;;;;;;;20.10;3.47;;;;;;;7.37;100.00;101071.88;4954091;28;20079;-81
2023/01/11 09:43:53;;;;;;;17.52;2.88;;;;;;;7.39;100.00;101073.47;4899199;29;20041;-80
2023/01/11 09:46:19;;;;;;;21.63;3.03;;;;;;;7.40;100.00;101075.16;4899059;29;20076;-81
2023/01/11 09:48:52;;;;;;;18.83;3.30;;;;;;;7.42;100.00;101078.47;4899059;29;20124;-79
2023/01/11 09:51:19;;;;;;;17.73;3.58;;;;;;;7.31;100.00;101059.31;4898867;29;20037;-81
2023/01/11 09:53:49;;;;;;;18.23;3.70;;;;;;;7.44;100.00;101079.22;4898938;29;20092;-80
2023/01/11 09:56:23;;;;;;;18.90;3.88;;;;;;;7.18;100.00;101038.50;4898619;29;20029;-81
2023/01/11 09:58:49;;;;;;;17.73;3.30;;;;;;;7.44;100.00;101081.78;4898737;29;20036;-82
2023/01/11 10:01:39;;;;;;;27.73;4.65;;;;;;;7.43;100.00;101085.28;4882463;29;20393;-79
2023/01/11 10:04:36;;;;;;;17.77;3.85;;;;;;;7.43;100.00;101092.97;4898668;29;20032;-80
2023/01/11 10:07:23;;;;;;;23.92;3.40;;;;;;;7.53;100.00;101085.69;4898664;29;20374;-80
2023/01/11 10:10:07;;;;;;;19.73;3.78;;;;;;;7.62;100.00;101095.53;4898223;29;20036;-80
2023/01/11 10:13:09;;;;;;;17.25;3.17;;;;;;;7.68;100.00;101084.16;4898435;29;20503;-82
2023/01/11 10:15:51;;;;;;;19.15;4.35;;;;;;;7.39;100.00;101032.38;4867830;29;20033;-82
2023/01/11 10:18:39;;;;;;;;;;;;;;;7.78;100.00;101092.28;4898844;29;20413;-82
2023/01/11 10:21:16;;;;;;;21.17;4.10;;;;;;;7.87;100.00;101089.28;4947002;29;19921;-80
2023/01/11 10:23:53;;;;;;;16.40;3.97;;;;;;;7.87;100.00;101078.97;4957715;28;20030;-81
2023/01/11 10:26:26;;;;;;;27.27;3.85;;;;;;;7.99;100.00;101092.06;4957068;29;20035;-81
2023/01/11 10:29:28;;;;;;;17.13;3.72;;;;;;;8.04;100.00;101095.25;4957300;28;20031;-80
2023/01/11 10:32:12;;;;;;;23.23;3.90;;;;;;;7.94;100.00;101062.34;4956754;28;20031;-79
2023/01/11 10:37:48;;;;;;;20.73;3.33;;;;;;;8.11;100.00;101087.25;4879227;29;20070;-81
2023/01/11 10:43:40;;;;;;;27.25;4.70;;;;;;;7.92;100.00;101056.44;4842393;29;20491;-82
2023/01/11 10:46:14;;;;;;;19.42;4.00;;;;;;;8.11;100.00;101092.38;4842215;29;20034;-81
2023/01/11 10:48:42;;;;;;;15.60;3.95;;;;;;;8.12;100.00;101094.88;4842372;29;20045;-81
2023/01/11 10:51:36;;;;;;;15.52;4.10;;;;;;;8.13;100.00;101082.84;4842040;29;20118;-82
2023/01/11 10:54:15;;;;;;;21.10;3.70;;;;;;;8.12;100.00;101086.34;4842168;29;20102;-81
2023/01/11 10:57:17;;;;;;;20.58;3.63;;;;;;;8.20;100.00;101097.09;4841964;29;20142;-82
2023/01/11 10:59:55;;;;;;;;;;;;;;;8.18;100.00;101102.31;4842698;29;20105;-80
2023/01/11 11:02:39;;;;;;;21.45;3.88;;;;;;;8.18;100.00;101104.88;4841096;29;19963;-78
2023/01/11 11:05:48;;;;;;;20.73;4.85;;;;;;;8.18;100.00;101093.75;4842742;29;20057;-78
2023/01/11 11:08:25;;;;;;;20.92;4.90;;;;;;;8.23;100.00;101097.75;4805275;29;20043;-79
2023/01/11 11:10:59;;;;;;;20.83;4.43;;;;;;;8.25;100.00;101103.66;4804919;29;20134;-78
2023/01/11 11:13:39;;;;;;;24.88;3.67;;;;;;;8.27;100.00;101101.03;4805052;29;20061;-77
2023/01/11 11:16:18;;;;;;;19.48;3.15;;;;;;;8.30;100.00;101106.84;4805145;29;20397;-78
2023/01/11 11:18:43;;;;;;;15.75;4.00;;;;;;;8.21;100.00;101089.28;4828763;29;20502;-79
2023/01/11 11:21:22;;;;;;;18.63;3.70;;;;;;;8.40;100.00;101109.00;4878515;29;20032;-77
2023/01/11 11:23:55;;;;;;;17.55;3.72;;;;;;;8.44;100.00;101101.03;4878617;29;20041;-77
2023/01/11 11:26:27;;;;;;;19.98;5.28;;;;;;;8.49;100.00;101103.41;4878260;29;20386;-77
2023/01/11 11:29:02;;;;;;;16.17;3.20;;;;;;;8.49;100.00;101087.97;4878335;29;20044;-78
2023/01/11 11:31:29;;;;;;;14.68;3.60;;;;;;;8.43;100.00;101077.97;4878503;29;20044;-77
2023/01/11 11:33:55;;;;;;;16.33;3.75;;;;;;;8.52;100.00;101103.25;4878171;29;20051;-79
2023/01/11 11:36:23;;;;;;;19.67;3.85;;;;;;;8.47;100.00;101092.38;4878268;29;20045;-77
2023/01/11 11:39:22;;;;;;;23.13;3.65;;;;;;;8.53;100.00;101105.75;4878366;29;20033;-79
2023/01/11 11:41:52;;;;;;;22.02;3.92;;;;;;;8.55;100.00;101095.34;4804711;29;20047;-76
2023/01/11 11:44:27;;;;;;;16.27;3.15;;;;;;;8.59;100.00;101114.91;4847766;29;20521;-78
2023/01/11 11:47:16;;;;;;;17.25;3.42;;;;;;;8.60;100.00;101117.41;4859364;29;20534;-76
2023/01/11 11:49:42;;;;;;;17.33;3.58;;;;;;;8.63;100.00;101118.97;4822938;29;20038;-77
2023/01/11 11:52:16;;;;;;;19.80;4.45;;;;;;;8.70;100.00;101116.94;4822819;29;20352;-75
2023/01/11 11:54:50;;;;;;;17.15;3.22;;;;;;;8.74;99.81;101116.69;4822914;29;20039;-76
2023/01/11 11:57:23;;;;;;;19.52;4.03;;;;;;;8.80;99.30;101123.28;4822643;29;20376;-76
2023/01/11 11:59:58;;;;;;;27.15;5.03;;;;;;;8.65;98.68;101098.31;4822765;29;20408;-77
2023/01/11 12:02:35;;;;;;;17.25;3.38;;;;;;;8.89;100.00;101121.06;4822375;29;20022;-75